Etusivu
METAR-TAF:

METAR-TAF

Lentoasemat :

Karlstad, Ruotsi

Leveyspiiri: 59-26-41N, Pituuspiiri: 013-20-15E, korkeus merenpinnasta: 107 m

Tämänhetkinen sää

Tämä raportti tehtiin 34 minuuttia sitten, kello 22.50 UTC
Tuuli 2 kn lounaasta
Lämpötila 11°C
Kosteus 82%
Ilmanpaine 1028 hPa
Näkyvyys 10 km tai enemmän

METAR: ESOK 242250Z AUTO 23002KT 9999 NCD 11/08 Q1028

Aika: 01:24 (23:24 UTC)

Sääennuste

Tämä raportti tehtiin 11 tuntia ja 54 minuuttia sitten, kello 11.30 UTC
Ennuste voimassa 24. päivästä klo 12 UTC - 24. päivään klo 21 UTC
Tuuli 8 kn etelästä
Näkyvyys 10 km tai enemmän
ei pilviä alle 1500 m:ssä eikä cumulonimbus-pilviä

TAF: ESOK 241130Z 2412/2421 17008KT CAVOK

Säähavainnot ja -ennusteet yli 4000 lentoasemalta (METAR- ja TAF-raportit).

Käytössä olevat sääasemat on merkitty karttaan keltaisilla ja punaisilla pisteillä.

Aseta hiiri pisteen päälle nähdäksesi sääaseman nimen.

Klikkaa sitten nähdäksesi säähavainnot ja -ennusteet.

Kartan vaihtaminen: klikkaa mustalla rastilla varustettuja vihreitä pisteitä, niin voit zoomata sisään; viivalla varustettua vihreää pistettä, niin voit zoomata ulos tai vihreitä nuolia, niin pääset viereisille kartoille.


METAR-TAF: